sensor_id;sensor_type;location;lat;lon;timestamp;P1;durP1;ratioP1;P2;durP2;ratioP2
58553;SDS011;48119;53.218;6.576;2023-04-15T00:00:54;11.27;;;5.20;;
58553;SDS011;48119;53.218;6.576;2023-04-15T00:03:26;12.70;;;6.57;;
58553;SDS011;48119;53.218;6.576;2023-04-15T00:05:53;12.68;;;6.50;;
58553;SDS011;48119;53.218;6.576;2023-04-15T00:08:20;12.93;;;6.65;;
58553;SDS011;48119;53.218;6.576;2023-04-15T00:10:52;10.65;;;5.35;;
58553;SDS011;48119;53.218;6.576;2023-04-15T00:13:27;9.73;;;4.68;;
58553;SDS011;48119;53.218;6.576;2023-04-15T00:15:53;12.70;;;5.07;;
58553;SDS011;48119;53.218;6.576;2023-04-15T00:18:19;7.57;;;4.55;;
58553;SDS011;48119;53.218;6.576;2023-04-15T00:20:45;8.88;;;5.18;;
58553;SDS011;48119;53.218;6.576;2023-04-15T00:23:11;9.55;;;5.07;;
58553;SDS011;48119;53.218;6.576;2023-04-15T00:25:36;10.90;;;5.30;;
58553;SDS011;48119;53.218;6.576;2023-04-15T00:28:02;13.05;;;4.85;;
58553;SDS011;48119;53.218;6.576;2023-04-15T00:30:28;6.53;;;4.25;;
58553;SDS011;48119;53.218;6.576;2023-04-15T00:32:54;12.13;;;5.13;;
58553;SDS011;48119;53.218;6.576;2023-04-15T00:35:20;11.05;;;4.95;;
58553;SDS011;48119;53.218;6.576;2023-04-15T00:37:46;7.78;;;4.63;;
58553;SDS011;48119;53.218;6.576;2023-04-15T00:40:12;7.13;;;4.68;;
58553;SDS011;48119;53.218;6.576;2023-04-15T00:42:38;9.15;;;5.18;;
58553;SDS011;48119;53.218;6.576;2023-04-15T00:45:04;12.35;;;5.07;;
58553;SDS011;48119;53.218;6.576;2023-04-15T00:47:31;9.13;;;4.53;;
58553;SDS011;48119;53.218;6.576;2023-04-15T00:49:59;9.02;;;5.03;;
58553;SDS011;48119;53.218;6.576;2023-04-15T00:52:25;10.90;;;5.13;;
58553;SDS011;48119;53.218;6.576;2023-04-15T00:54:51;7.05;;;4.80;;
58553;SDS011;48119;53.218;6.576;2023-04-15T00:57:17;13.10;;;5.63;;
58553;SDS011;48119;53.218;6.576;2023-04-15T00:59:45;10.05;;;5.55;;
58553;SDS011;48119;53.218;6.576;2023-04-15T01:02:11;9.30;;;5.63;;
58553;SDS011;48119;53.218;6.576;2023-04-15T01:04:37;8.98;;;5.20;;
58553;SDS011;48119;53.218;6.576;2023-04-15T01:07:03;11.85;;;5.93;;
58553;SDS011;48119;53.218;6.576;2023-04-15T01:09:29;9.65;;;4.70;;
58553;SDS011;48119;53.218;6.576;2023-04-15T01:11:54;10.10;;;5.20;;
58553;SDS011;48119;53.218;6.576;2023-04-15T01:14:21;9.63;;;5.07;;
58553;SDS011;48119;53.218;6.576;2023-04-15T01:16:47;11.32;;;6.13;;
58553;SDS011;48119;53.218;6.576;2023-04-15T01:19:13;10.50;;;5.22;;
58553;SDS011;48119;53.218;6.576;2023-04-15T01:21:42;8.65;;;5.32;;
58553;SDS011;48119;53.218;6.576;2023-04-15T01:24:08;10.10;;;6.20;;
58553;SDS011;48119;53.218;6.576;2023-04-15T01:26:38;11.60;;;6.25;;
58553;SDS011;48119;53.218;6.576;2023-04-15T01:29:05;11.65;;;5.65;;
58553;SDS011;48119;53.218;6.576;2023-04-15T01:31:31;7.85;;;5.03;;
58553;SDS011;48119;53.218;6.576;2023-04-15T01:33:57;6.85;;;5.15;;
58553;SDS011;48119;53.218;6.576;2023-04-15T01:36:23;9.63;;;5.65;;
58553;SDS011;48119;53.218;6.576;2023-04-15T01:38:49;7.18;;;5.45;;
58553;SDS011;48119;53.218;6.576;2023-04-15T01:41:15;7.88;;;5.00;;
58553;SDS011;48119;53.218;6.576;2023-04-15T01:43:43;8.90;;;5.10;;
58553;SDS011;48119;53.218;6.576;2023-04-15T01:46:09;7.18;;;5.50;;
58553;SDS011;48119;53.218;6.576;2023-04-15T01:48:35;7.30;;;4.88;;
58553;SDS011;48119;53.218;6.576;2023-04-15T01:51:01;7.68;;;5.75;;
58553;SDS011;48119;53.218;6.576;2023-04-15T01:53:27;6.75;;;5.47;;
58553;SDS011;48119;53.218;6.576;2023-04-15T01:55:53;11.20;;;5.85;;
58553;SDS011;48119;53.218;6.576;2023-04-15T01:58:19;8.45;;;5.75;;
58553;SDS011;48119;53.218;6.576;2023-04-15T02:00:46;7.35;;;5.43;;
58553;SDS011;48119;53.218;6.576;2023-04-15T02:03:11;8.43;;;5.68;;
58553;SDS011;48119;53.218;6.576;2023-04-15T02:05:37;6.93;;;5.40;;
58553;SDS011;48119;53.218;6.576;2023-04-15T02:08:03;9.93;;;5.75;;
58553;SDS011;48119;53.218;6.576;2023-04-15T02:10:29;12.02;;;6.28;;
58553;SDS011;48119;53.218;6.576;2023-04-15T02:12:55;10.52;;;7.45;;
58553;SDS011;48119;53.218;6.576;2023-04-15T02:15:21;8.85;;;6.20;;
58553;SDS011;48119;53.218;6.576;2023-04-15T02:17:47;9.43;;;6.55;;
58553;SDS011;48119;53.218;6.576;2023-04-15T02:20:15;10.20;;;7.07;;
58553;SDS011;48119;53.218;6.576;2023-04-15T02:22:42;8.52;;;6.28;;
58553;SDS011;48119;53.218;6.576;2023-04-15T02:25:08;9.50;;;6.28;;
58553;SDS011;48119;53.218;6.576;2023-04-15T02:27:36;11.00;;;7.45;;
58553;SDS011;48119;53.218;6.576;2023-04-15T02:30:02;11.68;;;7.82;;
58553;SDS011;48119;53.218;6.576;2023-04-15T02:32:28;12.05;;;7.75;;
58553;SDS011;48119;53.218;6.576;2023-04-15T02:34:54;11.43;;;7.85;;
58553;SDS011;48119;53.218;6.576;2023-04-15T02:37:20;11.40;;;7.25;;
58553;SDS011;48119;53.218;6.576;2023-04-15T02:39:46;11.02;;;7.00;;
58553;SDS011;48119;53.218;6.576;2023-04-15T02:42:11;9.40;;;7.13;;
58553;SDS011;48119;53.218;6.576;2023-04-15T02:44:37;11.88;;;6.95;;
58553;SDS011;48119;53.218;6.576;2023-04-15T02:47:03;11.00;;;7.15;;
58553;SDS011;48119;53.218;6.576;2023-04-15T02:49:31;12.15;;;7.47;;
58553;SDS011;48119;53.218;6.576;2023-04-15T02:51:57;10.02;;;7.25;;
58553;SDS011;48119;53.218;6.576;2023-04-15T02:54:24;10.05;;;6.88;;
58553;SDS011;48119;53.218;6.576;2023-04-15T02:56:52;11.63;;;8.05;;
58553;SDS011;48119;53.218;6.576;2023-04-15T02:59:20;12.70;;;7.43;;
58553;SDS011;48119;53.218;6.576;2023-04-15T03:01:46;13.98;;;8.35;;
58553;SDS011;48119;53.218;6.576;2023-04-15T03:04:12;12.75;;;8.60;;
58553;SDS011;48119;53.218;6.576;2023-04-15T03:06:38;12.48;;;8.40;;
58553;SDS011;48119;53.218;6.576;2023-04-15T03:09:04;12.60;;;8.23;;
58553;SDS011;48119;53.218;6.576;2023-04-15T03:11:29;11.02;;;8.23;;
58553;SDS011;48119;53.218;6.576;2023-04-15T03:13:56;20.50;;;9.43;;
58553;SDS011;48119;53.218;6.576;2023-04-15T03:16:22;12.10;;;8.43;;
58553;SDS011;48119;53.218;6.576;2023-04-15T03:18:49;12.02;;;8.43;;
58553;SDS011;48119;53.218;6.576;2023-04-15T03:21:14;14.70;;;9.10;;
58553;SDS011;48119;53.218;6.576;2023-04-15T03:23:40;13.25;;;9.05;;
58553;SDS011;48119;53.218;6.576;2023-04-15T03:26:06;12.93;;;8.65;;
58553;SDS011;48119;53.218;6.576;2023-04-15T03:28:32;12.65;;;9.27;;
58553;SDS011;48119;53.218;6.576;2023-04-15T03:30:58;14.77;;;8.65;;
58553;SDS011;48119;53.218;6.576;2023-04-15T03:33:24;10.95;;;7.80;;
58553;SDS011;48119;53.218;6.576;2023-04-15T03:35:50;11.23;;;8.23;;
58553;SDS011;48119;53.218;6.576;2023-04-15T03:38:16;11.57;;;8.27;;
58553;SDS011;48119;53.218;6.576;2023-04-15T03:40:42;10.75;;;8.52;;
58553;SDS011;48119;53.218;6.576;2023-04-15T03:43:10;14.38;;;10.00;;
58553;SDS011;48119;53.218;6.576;2023-04-15T03:45:36;10.02;;;7.90;;
58553;SDS011;48119;53.218;6.576;2023-04-15T03:48:02;12.85;;;9.20;;
58553;SDS011;48119;53.218;6.576;2023-04-15T03:50:27;11.48;;;9.02;;
58553;SDS011;48119;53.218;6.576;2023-04-15T03:52:53;11.77;;;8.27;;
58553;SDS011;48119;53.218;6.576;2023-04-15T03:55:20;13.80;;;8.77;;
58553;SDS011;48119;53.218;6.576;2023-04-15T03:57:45;13.07;;;10.30;;
58553;SDS011;48119;53.218;6.576;2023-04-15T04:00:11;13.27;;;10.30;;
58553;SDS011;48119;53.218;6.576;2023-04-15T04:02:37;12.13;;;9.63;;
58553;SDS011;48119;53.218;6.576;2023-04-15T04:05:02;14.25;;;9.68;;
58553;SDS011;48119;53.218;6.576;2023-04-15T04:07:28;16.23;;;9.80;;
58553;SDS011;48119;53.218;6.576;2023-04-15T04:09:58;16.00;;;10.95;;
58553;SDS011;48119;53.218;6.576;2023-04-15T04:12:23;12.63;;;9.38;;
58553;SDS011;48119;53.218;6.576;2023-04-15T04:14:49;12.98;;;10.00;;
58553;SDS011;48119;53.218;6.576;2023-04-15T04:17:15;15.68;;;10.27;;
58553;SDS011;48119;53.218;6.576;2023-04-15T04:19:41;11.90;;;9.30;;
58553;SDS011;48119;53.218;6.576;2023-04-15T04:22:06;13.13;;;8.73;;
58553;SDS011;48119;53.218;6.576;2023-04-15T04:24:32;13.40;;;8.70;;
58553;SDS011;48119;53.218;6.576;2023-04-15T04:26:58;14.60;;;9.55;;
58553;SDS011;48119;53.218;6.576;2023-04-15T04:29:24;12.45;;;9.10;;
58553;SDS011;48119;53.218;6.576;2023-04-15T04:31:49;12.80;;;8.70;;
58553;SDS011;48119;53.218;6.576;2023-04-15T04:34:15;10.25;;;8.07;;
58553;SDS011;48119;53.218;6.576;2023-04-15T04:36:41;11.65;;;8.35;;
58553;SDS011;48119;53.218;6.576;2023-04-15T04:39:07;10.43;;;7.90;;
58553;SDS011;48119;53.218;6.576;2023-04-15T04:41:33;11.30;;;8.85;;
58553;SDS011;48119;53.218;6.576;2023-04-15T04:43:58;10.77;;;8.45;;
58553;SDS011;48119;53.218;6.576;2023-04-15T04:46:24;10.95;;;7.38;;
58553;SDS011;48119;53.218;6.576;2023-04-15T04:48:50;10.63;;;7.53;;
58553;SDS011;48119;53.218;6.576;2023-04-15T04:51:16;11.30;;;8.13;;
58553;SDS011;48119;53.218;6.576;2023-04-15T04:53:42;11.43;;;7.95;;
58553;SDS011;48119;53.218;6.576;2023-04-15T04:56:08;10.95;;;7.70;;
58553;SDS011;48119;53.218;6.576;2023-04-15T04:58:34;11.45;;;7.60;;
58553;SDS011;48119;53.218;6.576;2023-04-15T05:01:00;10.55;;;7.85;;
58553;SDS011;48119;53.218;6.576;2023-04-15T05:03:27;173.00;;;107.70;;
58553;SDS011;48119;53.218;6.576;2023-04-15T05:05:53;55.42;;;32.38;;
58553;SDS011;48119;53.218;6.576;2023-04-15T05:08:18;48.25;;;22.15;;
58553;SDS011;48119;53.218;6.576;2023-04-15T05:10:44;58.25;;;40.58;;
58553;SDS011;48119;53.218;6.576;2023-04-15T05:13:10;27.92;;;19.20;;
58553;SDS011;48119;53.218;6.576;2023-04-15T05:15:36;12.60;;;8.98;;
58553;SDS011;48119;53.218;6.576;2023-04-15T05:18:05;10.73;;;7.97;;
58553;SDS011;48119;53.218;6.576;2023-04-15T05:20:31;10.70;;;7.88;;
58553;SDS011;48119;53.218;6.576;2023-04-15T05:22:56;11.30;;;7.97;;
58553;SDS011;48119;53.218;6.576;2023-04-15T05:25:22;12.70;;;8.77;;
58553;SDS011;48119;53.218;6.576;2023-04-15T05:27:48;11.35;;;8.32;;
58553;SDS011;48119;53.218;6.576;2023-04-15T05:30:13;13.38;;;9.00;;
58553;SDS011;48119;53.218;6.576;2023-04-15T05:32:39;12.45;;;8.18;;
58553;SDS011;48119;53.218;6.576;2023-04-15T05:35:05;10.45;;;7.65;;
58553;SDS011;48119;53.218;6.576;2023-04-15T05:37:32;13.63;;;8.23;;
58553;SDS011;48119;53.218;6.576;2023-04-15T05:39:57;12.18;;;7.50;;
58553;SDS011;48119;53.218;6.576;2023-04-15T05:42:23;12.98;;;9.40;;
58553;SDS011;48119;53.218;6.576;2023-04-15T05:44:49;9.77;;;7.63;;
58553;SDS011;48119;53.218;6.576;2023-04-15T05:47:15;15.40;;;8.18;;
58553;SDS011;48119;53.218;6.576;2023-04-15T05:49:41;11.55;;;7.20;;
58553;SDS011;48119;53.218;6.576;2023-04-15T05:52:06;9.43;;;7.38;;
58553;SDS011;48119;53.218;6.576;2023-04-15T05:54:32;11.27;;;7.43;;
58553;SDS011;48119;53.218;6.576;2023-04-15T05:56:58;11.95;;;8.50;;
58553;SDS011;48119;53.218;6.576;2023-04-15T05:59:24;12.48;;;8.60;;
58553;SDS011;48119;53.218;6.576;2023-04-15T06:01:49;11.30;;;8.20;;
58553;SDS011;48119;53.218;6.576;2023-04-15T06:04:16;11.95;;;7.45;;
58553;SDS011;48119;53.218;6.576;2023-04-15T06:06:42;11.07;;;8.38;;
58553;SDS011;48119;53.218;6.576;2023-04-15T06:09:07;9.70;;;7.00;;
58553;SDS011;48119;53.218;6.576;2023-04-15T06:11:33;12.05;;;8.15;;
58553;SDS011;48119;53.218;6.576;2023-04-15T06:13:59;10.00;;;7.55;;
58553;SDS011;48119;53.218;6.576;2023-04-15T06:16:25;11.27;;;8.57;;
58553;SDS011;48119;53.218;6.576;2023-04-15T06:18:51;12.07;;;8.68;;
58553;SDS011;48119;53.218;6.576;2023-04-15T06:21:17;12.85;;;8.02;;
58553;SDS011;48119;53.218;6.576;2023-04-15T06:23:43;11.90;;;7.68;;
58553;SDS011;48119;53.218;6.576;2023-04-15T06:26:09;10.63;;;7.45;;
58553;SDS011;48119;53.218;6.576;2023-04-15T06:28:35;11.98;;;7.10;;
58553;SDS011;48119;53.218;6.576;2023-04-15T06:31:00;10.57;;;7.25;;
58553;SDS011;48119;53.218;6.576;2023-04-15T06:33:26;10.73;;;7.63;;
58553;SDS011;48119;53.218;6.576;2023-04-15T06:35:52;10.30;;;6.78;;
58553;SDS011;48119;53.218;6.576;2023-04-15T06:38:18;12.52;;;7.65;;
58553;SDS011;48119;53.218;6.576;2023-04-15T06:40:43;14.35;;;8.60;;
58553;SDS011;48119;53.218;6.576;2023-04-15T06:43:10;10.60;;;7.32;;
58553;SDS011;48119;53.218;6.576;2023-04-15T06:45:36;11.40;;;7.07;;
58553;SDS011;48119;53.218;6.576;2023-04-15T06:48:02;10.43;;;7.43;;
58553;SDS011;48119;53.218;6.576;2023-04-15T06:50:28;11.52;;;7.75;;
58553;SDS011;48119;53.218;6.576;2023-04-15T06:52:54;11.95;;;7.97;;
58553;SDS011;48119;53.218;6.576;2023-04-15T06:55:20;11.73;;;7.65;;
58553;SDS011;48119;53.218;6.576;2023-04-15T06:57:46;12.30;;;7.28;;
58553;SDS011;48119;53.218;6.576;2023-04-15T07:00:12;13.85;;;8.10;;
58553;SDS011;48119;53.218;6.576;2023-04-15T07:02:38;10.00;;;7.28;;
58553;SDS011;48119;53.218;6.576;2023-04-15T07:05:05;8.80;;;6.10;;
58553;SDS011;48119;53.218;6.576;2023-04-15T07:07:31;12.50;;;7.50;;
58553;SDS011;48119;53.218;6.576;2023-04-15T07:09:57;12.65;;;6.95;;
58553;SDS011;48119;53.218;6.576;2023-04-15T07:12:23;10.82;;;7.10;;
58553;SDS011;48119;53.218;6.576;2023-04-15T07:14:49;10.95;;;7.43;;
58553;SDS011;48119;53.218;6.576;2023-04-15T07:17:14;10.57;;;6.50;;
58553;SDS011;48119;53.218;6.576;2023-04-15T07:19:40;16.98;;;6.90;;
58553;SDS011;48119;53.218;6.576;2023-04-15T07:22:06;9.13;;;6.28;;
58553;SDS011;48119;53.218;6.576;2023-04-15T07:24:32;11.07;;;6.50;;
58553;SDS011;48119;53.218;6.576;2023-04-15T07:26:58;10.10;;;6.72;;
58553;SDS011;48119;53.218;6.576;2023-04-15T07:29:24;14.38;;;6.68;;
58553;SDS011;48119;53.218;6.576;2023-04-15T07:31:51;8.15;;;5.80;;
58553;SDS011;48119;53.218;6.576;2023-04-15T07:34:18;9.55;;;5.45;;
58553;SDS011;48119;53.218;6.576;2023-04-15T07:36:44;12.63;;;6.25;;
58553;SDS011;48119;53.218;6.576;2023-04-15T07:39:10;9.88;;;6.18;;
58553;SDS011;48119;53.218;6.576;2023-04-15T07:41:36;11.18;;;5.63;;
58553;SDS011;48119;53.218;6.576;2023-04-15T07:44:02;7.95;;;4.95;;
58553;SDS011;48119;53.218;6.576;2023-04-15T07:46:28;9.23;;;5.13;;
58553;SDS011;48119;53.218;6.576;2023-04-15T07:48:54;8.82;;;5.22;;
58553;SDS011;48119;53.218;6.576;2023-04-15T07:51:20;11.60;;;6.00;;
58553;SDS011;48119;53.218;6.576;2023-04-15T07:53:46;9.35;;;5.25;;
58553;SDS011;48119;53.218;6.576;2023-04-15T07:56:14;8.60;;;4.95;;
58553;SDS011;48119;53.218;6.576;2023-04-15T07:58:40;10.13;;;5.57;;
58553;SDS011;48119;53.218;6.576;2023-04-15T08:01:06;8.68;;;5.05;;
58553;SDS011;48119;53.218;6.576;2023-04-15T08:03:32;8.48;;;4.47;;
58553;SDS011;48119;53.218;6.576;2023-04-15T08:05:58;7.85;;;4.60;;
58553;SDS011;48119;53.218;6.576;2023-04-15T08:08:24;10.07;;;5.40;;
58553;SDS011;48119;53.218;6.576;2023-04-15T08:10:50;8.52;;;5.03;;
58553;SDS011;48119;53.218;6.576;2023-04-15T08:13:16;7.60;;;4.95;;
58553;SDS011;48119;53.218;6.576;2023-04-15T08:15:42;5.93;;;4.10;;
58553;SDS011;48119;53.218;6.576;2023-04-15T08:18:08;8.95;;;4.70;;
58553;SDS011;48119;53.218;6.576;2023-04-15T08:20:34;5.47;;;4.00;;
58553;SDS011;48119;53.218;6.576;2023-04-15T08:22:59;4.75;;;3.28;;
58553;SDS011;48119;53.218;6.576;2023-04-15T08:25:26;9.65;;;4.45;;
58553;SDS011;48119;53.218;6.576;2023-04-15T08:27:54;6.90;;;3.60;;
58553;SDS011;48119;53.218;6.576;2023-04-15T08:30:20;7.40;;;3.70;;
58553;SDS011;48119;53.218;6.576;2023-04-15T08:32:45;7.30;;;3.92;;
58553;SDS011;48119;53.218;6.576;2023-04-15T08:35:11;8.25;;;3.60;;
58553;SDS011;48119;53.218;6.576;2023-04-15T08:37:38;5.40;;;3.13;;
58553;SDS011;48119;53.218;6.576;2023-04-15T08:40:04;5.05;;;2.90;;
58553;SDS011;48119;53.218;6.576;2023-04-15T08:42:30;5.35;;;3.38;;
58553;SDS011;48119;53.218;6.576;2023-04-15T08:45:00;6.85;;;2.92;;
58553;SDS011;48119;53.218;6.576;2023-04-15T08:47:29;9.48;;;3.63;;
58553;SDS011;48119;53.218;6.576;2023-04-15T08:49:58;6.72;;;2.58;;
58553;SDS011;48119;53.218;6.576;2023-04-15T08:52:29;6.22;;;2.55;;
58553;SDS011;48119;53.218;6.576;2023-04-15T08:54:56;5.70;;;2.50;;
58553;SDS011;48119;53.218;6.576;2023-04-15T08:57:25;4.72;;;2.30;;
58553;SDS011;48119;53.218;6.576;2023-04-15T08:59:53;4.53;;;1.92;;
58553;SDS011;48119;53.218;6.576;2023-04-15T09:02:21;4.13;;;2.40;;
58553;SDS011;48119;53.218;6.576;2023-04-15T09:04:51;2.65;;;1.83;;
58553;SDS011;48119;53.218;6.576;2023-04-15T09:07:17;8.02;;;2.42;;
58553;SDS011;48119;53.218;6.576;2023-04-15T09:09:43;5.18;;;2.05;;
58553;SDS011;48119;53.218;6.576;2023-04-15T09:12:10;4.63;;;2.50;;
58553;SDS011;48119;53.218;6.576;2023-04-15T09:14:36;6.50;;;2.45;;
58553;SDS011;48119;53.218;6.576;2023-04-15T09:17:09;4.18;;;1.80;;
58553;SDS011;48119;53.218;6.576;2023-04-15T09:19:35;3.92;;;2.20;;
58553;SDS011;48119;53.218;6.576;2023-04-15T09:22:01;5.60;;;2.38;;
58553;SDS011;48119;53.218;6.576;2023-04-15T09:24:37;3.50;;;1.70;;
58553;SDS011;48119;53.218;6.576;2023-04-15T09:27:05;4.63;;;1.63;;
58553;SDS011;48119;53.218;6.576;2023-04-15T09:29:31;3.50;;;1.55;;
58553;SDS011;48119;53.218;6.576;2023-04-15T09:31:57;2.85;;;1.50;;
58553;SDS011;48119;53.218;6.576;2023-04-15T09:34:35;2.33;;;1.67;;
58553;SDS011;48119;53.218;6.576;2023-04-15T09:37:01;2.45;;;1.40;;
58553;SDS011;48119;53.218;6.576;2023-04-15T09:39:39;6.00;;;2.03;;
58553;SDS011;48119;53.218;6.576;2023-04-15T09:42:12;4.03;;;1.45;;
58553;SDS011;48119;53.218;6.576;2023-04-15T09:44:38;1.80;;;1.27;;
58553;SDS011;48119;53.218;6.576;2023-04-15T09:47:04;4.70;;;1.88;;
58553;SDS011;48119;53.218;6.576;2023-04-15T09:49:30;3.55;;;1.30;;
58553;SDS011;48119;53.218;6.576;2023-04-15T09:51:58;4.93;;;1.75;;
58553;SDS011;48119;53.218;6.576;2023-04-15T09:54:31;3.72;;;1.58;;
58553;SDS011;48119;53.218;6.576;2023-04-15T09:57:04;3.00;;;1.60;;
58553;SDS011;48119;53.218;6.576;2023-04-15T09:59:31;2.80;;;1.30;;
58553;SDS011;48119;53.218;6.576;2023-04-15T10:01:57;3.15;;;1.20;;
58553;SDS011;48119;53.218;6.576;2023-04-15T10:04:23;5.40;;;1.48;;
58553;SDS011;48119;53.218;6.576;2023-04-15T10:06:52;2.85;;;1.50;;
58553;SDS011;48119;53.218;6.576;2023-04-15T10:09:18;3.83;;;1.13;;
58553;SDS011;48119;53.218;6.576;2023-04-15T10:11:44;2.95;;;1.33;;
58553;SDS011;48119;53.218;6.576;2023-04-15T10:14:12;5.70;;;1.52;;
58553;SDS011;48119;53.218;6.576;2023-04-15T10:16:40;2.47;;;1.35;;
58553;SDS011;48119;53.218;6.576;2023-04-15T10:19:13;4.43;;;1.52;;
58553;SDS011;48119;53.218;6.576;2023-04-15T10:21:43;4.72;;;1.77;;
58553;SDS011;48119;53.218;6.576;2023-04-15T10:24:09;3.30;;;1.60;;
58553;SDS011;48119;53.218;6.576;2023-04-15T10:26:35;2.75;;;1.48;;
58553;SDS011;48119;53.218;6.576;2023-04-15T10:29:02;4.70;;;1.85;;
58553;SDS011;48119;53.218;6.576;2023-04-15T10:31:28;4.95;;;1.45;;
58553;SDS011;48119;53.218;6.576;2023-04-15T10:33:55;3.95;;;1.67;;
58553;SDS011;48119;53.218;6.576;2023-04-15T10:36:21;6.75;;;2.25;;
58553;SDS011;48119;53.218;6.576;2023-04-15T10:38:47;6.72;;;1.88;;
58553;SDS011;48119;53.218;6.576;2023-04-15T10:41:17;4.38;;;1.77;;
58553;SDS011;48119;53.218;6.576;2023-04-15T10:46:34;5.88;;;2.05;;
58553;SDS011;48119;53.218;6.576;2023-04-15T10:49:06;4.13;;;2.10;;
58553;SDS011;48119;53.218;6.576;2023-04-15T10:51:35;8.05;;;2.13;;
58553;SDS011;48119;53.218;6.576;2023-04-15T10:54:08;7.78;;;2.10;;
58553;SDS011;48119;53.218;6.576;2023-04-15T10:56:40;3.92;;;2.05;;
58553;SDS011;48119;53.218;6.576;2023-04-15T10:59:07;4.00;;;2.13;;
58553;SDS011;48119;53.218;6.576;2023-04-15T11:01:49;5.45;;;1.95;;
58553;SDS011;48119;53.218;6.576;2023-04-15T11:07:33;5.22;;;1.98;;
58553;SDS011;48119;53.218;6.576;2023-04-15T11:12:59;6.15;;;2.45;;
58553;SDS011;48119;53.218;6.576;2023-04-15T11:18:25;4.32;;;1.65;;
58553;SDS011;48119;53.218;6.576;2023-04-15T11:20:53;4.97;;;1.87;;
58553;SDS011;48119;53.218;6.576;2023-04-15T11:26:24;8.10;;;1.85;;
58553;SDS011;48119;53.218;6.576;2023-04-15T11:28:51;7.15;;;1.92;;
58553;SDS011;48119;53.218;6.576;2023-04-15T11:31:17;4.10;;;1.77;;
58553;SDS011;48119;53.218;6.576;2023-04-15T11:33:57;6.95;;;2.40;;
58553;SDS011;48119;53.218;6.576;2023-04-15T11:36:27;4.07;;;1.92;;
58553;SDS011;48119;53.218;6.576;2023-04-15T11:38:54;10.15;;;2.15;;
58553;SDS011;48119;53.218;6.576;2023-04-15T11:41:22;8.25;;;2.15;;
58553;SDS011;48119;53.218;6.576;2023-04-15T11:43:48;8.35;;;2.47;;
58553;SDS011;48119;53.218;6.576;2023-04-15T11:46:15;7.20;;;2.47;;
58553;SDS011;48119;53.218;6.576;2023-04-15T11:48:44;6.88;;;2.33;;
58553;SDS011;48119;53.218;6.576;2023-04-15T11:51:11;7.60;;;2.60;;
58553;SDS011;48119;53.218;6.576;2023-04-15T11:53:45;9.77;;;2.63;;
58553;SDS011;48119;53.218;6.576;2023-04-15T11:56:16;9.13;;;2.95;;
58553;SDS011;48119;53.218;6.576;2023-04-15T11:58:53;10.07;;;2.40;;
58553;SDS011;48119;53.218;6.576;2023-04-15T12:01:30;9.85;;;2.90;;
58553;SDS011;48119;53.218;6.576;2023-04-15T12:04:00;9.18;;;2.33;;
58553;SDS011;48119;53.218;6.576;2023-04-15T12:06:31;8.18;;;2.42;;
58553;SDS011;48119;53.218;6.576;2023-04-15T12:09:06;5.18;;;1.80;;
58553;SDS011;48119;53.218;6.576;2023-04-15T12:11:39;4.32;;;1.60;;
58553;SDS011;48119;53.218;6.576;2023-04-15T12:16:56;10.50;;;3.63;;
58553;SDS011;48119;53.218;6.576;2023-04-15T12:19:25;14.48;;;3.05;;
58553;SDS011;48119;53.218;6.576;2023-04-15T12:21:56;7.88;;;2.50;;
58553;SDS011;48119;53.218;6.576;2023-04-15T12:24:27;10.00;;;2.88;;
58553;SDS011;48119;53.218;6.576;2023-04-15T12:26:55;8.18;;;1.98;;
58553;SDS011;48119;53.218;6.576;2023-04-15T12:29:26;5.47;;;2.08;;
58553;SDS011;48119;53.218;6.576;2023-04-15T12:31:54;7.05;;;3.25;;
58553;SDS011;48119;53.218;6.576;2023-04-15T12:34:29;8.85;;;2.08;;
58553;SDS011;48119;53.218;6.576;2023-04-15T12:36:57;7.80;;;2.17;;
58553;SDS011;48119;53.218;6.576;2023-04-15T12:39:25;7.72;;;2.10;;
58553;SDS011;48119;53.218;6.576;2023-04-15T12:41:52;9.77;;;3.20;;
58553;SDS011;48119;53.218;6.576;2023-04-15T12:44:18;6.90;;;2.80;;
58553;SDS011;48119;53.218;6.576;2023-04-15T12:46:46;43.60;;;25.23;;
58553;SDS011;48119;53.218;6.576;2023-04-15T12:49:12;307.52;;;224.57;;
58553;SDS011;48119;53.218;6.576;2023-04-15T12:51:40;304.80;;;236.13;;
58553;SDS011;48119;53.218;6.576;2023-04-15T12:54:06;373.38;;;277.02;;
58553;SDS011;48119;53.218;6.576;2023-04-15T12:56:32;854.42;;;632.40;;
58553;SDS011;48119;53.218;6.576;2023-04-15T12:58:58;1002.95;;;720.92;;
58553;SDS011;48119;53.218;6.576;2023-04-15T13:01:24;632.30;;;493.20;;
58553;SDS011;48119;53.218;6.576;2023-04-15T13:03:50;581.08;;;457.27;;
58553;SDS011;48119;53.218;6.576;2023-04-15T13:06:16;189.57;;;135.65;;
58553;SDS011;48119;53.218;6.576;2023-04-15T13:08:42;15.90;;;6.70;;
58553;SDS011;48119;53.218;6.576;2023-04-15T13:11:07;11.52;;;4.60;;
58553;SDS011;48119;53.218;6.576;2023-04-15T13:13:33;8.05;;;3.58;;
58553;SDS011;48119;53.218;6.576;2023-04-15T13:15:59;3.97;;;2.08;;
58553;SDS011;48119;53.218;6.576;2023-04-15T13:18:24;6.68;;;2.08;;
58553;SDS011;48119;53.218;6.576;2023-04-15T13:20:50;11.18;;;5.00;;
58553;SDS011;48119;53.218;6.576;2023-04-15T13:23:16;8.88;;;2.78;;
58553;SDS011;48119;53.218;6.576;2023-04-15T13:25:42;7.85;;;2.90;;
58553;SDS011;48119;53.218;6.576;2023-04-15T13:28:10;6.65;;;2.97;;
58553;SDS011;48119;53.218;6.576;2023-04-15T13:30:37;13.43;;;4.47;;
58553;SDS011;48119;53.218;6.576;2023-04-15T13:33:03;7.90;;;2.50;;
58553;SDS011;48119;53.218;6.576;2023-04-15T13:35:31;6.60;;;2.33;;
58553;SDS011;48119;53.218;6.576;2023-04-15T13:37:57;13.70;;;6.18;;
58553;SDS011;48119;53.218;6.576;2023-04-15T13:40:22;4.43;;;1.90;;
58553;SDS011;48119;53.218;6.576;2023-04-15T13:42:49;11.18;;;3.17;;
58553;SDS011;48119;53.218;6.576;2023-04-15T13:45:17;21.77;;;12.98;;
58553;SDS011;48119;53.218;6.576;2023-04-15T13:47:43;300.20;;;212.55;;
58553;SDS011;48119;53.218;6.576;2023-04-15T13:50:09;174.38;;;121.72;;
58553;SDS011;48119;53.218;6.576;2023-04-15T13:52:35;70.47;;;51.45;;
58553;SDS011;48119;53.218;6.576;2023-04-15T13:55:01;144.95;;;107.10;;
58553;SDS011;48119;53.218;6.576;2023-04-15T13:57:28;269.02;;;214.05;;
58553;SDS011;48119;53.218;6.576;2023-04-15T13:59:54;45.60;;;35.40;;
58553;SDS011;48119;53.218;6.576;2023-04-15T14:02:20;167.88;;;118.18;;
58553;SDS011;48119;53.218;6.576;2023-04-15T14:04:46;73.18;;;51.00;;
58553;SDS011;48119;53.218;6.576;2023-04-15T14:07:11;170.40;;;130.90;;
58553;SDS011;48119;53.218;6.576;2023-04-15T14:09:37;508.40;;;411.00;;
58553;SDS011;48119;53.218;6.576;2023-04-15T14:12:03;764.45;;;637.47;;
58553;SDS011;48119;53.218;6.576;2023-04-15T14:14:29;171.95;;;129.32;;
58553;SDS011;48119;53.218;6.576;2023-04-15T14:16:55;20.63;;;11.68;;
58553;SDS011;48119;53.218;6.576;2023-04-15T14:19:21;11.35;;;5.45;;
58553;SDS011;48119;53.218;6.576;2023-04-15T14:21:48;11.05;;;3.22;;
58553;SDS011;48119;53.218;6.576;2023-04-15T14:24:14;8.65;;;3.28;;
58553;SDS011;48119;53.218;6.576;2023-04-15T14:26:41;9.90;;;2.50;;
58553;SDS011;48119;53.218;6.576;2023-04-15T14:29:08;8.75;;;2.75;;
58553;SDS011;48119;53.218;6.576;2023-04-15T14:31:35;12.02;;;3.53;;
58553;SDS011;48119;53.218;6.576;2023-04-15T14:34:01;8.60;;;2.78;;
58553;SDS011;48119;53.218;6.576;2023-04-15T14:36:27;10.98;;;3.08;;
58553;SDS011;48119;53.218;6.576;2023-04-15T14:38:53;8.10;;;3.03;;
58553;SDS011;48119;53.218;6.576;2023-04-15T14:41:19;6.05;;;2.33;;
58553;SDS011;48119;53.218;6.576;2023-04-15T14:43:46;9.13;;;2.80;;
58553;SDS011;48119;53.218;6.576;2023-04-15T14:46:12;6.32;;;2.85;;
58553;SDS011;48119;53.218;6.576;2023-04-15T14:48:38;9.52;;;3.10;;
58553;SDS011;48119;53.218;6.576;2023-04-15T14:51:05;11.82;;;3.97;;
58553;SDS011;48119;53.218;6.576;2023-04-15T14:53:30;9.95;;;3.60;;